Historique des mesures à Cassis (13260), France
Quotidien Résumé Aout 26, 2017 Unités:  Métrique    US   Métrique/US
« Précédent (Jour)
Suivant (Jour) »
Quotidien Hebdomadaire Mensuel Annuel Période au choix
  Maximum: Minimum: Moyenne:
Température: TemperatureC °C 20.9 °C 24.2 °C
Point de rosée: DewpointC °C 13.1 °C 17.3 °C
Humidité: Humidity % 52 % 62 %
Vitesse du vent: 0 km/h 0 km/h 2.7 km/h
Rafales: 0 km/h - -
Vent:- - SSE
Pression: PressurehPa hPa 1012.8 hPa -
Précipitations: 0.0 mm    
Historical Graphs
 
 
Mesures pour : Aout 26, 2017
Heure Temperature Point de rosée Pression Vent Vitesse du vent Rafales Humidité Pluie (par heure) Conditions
TemperatureC °C DewpointC °C PressurehPa hPa Calm     Humidity % HourlyPrecipMM mm SoftwareType W/m2
00:11 23.4 °C 19.8 °C 1014.8 hPa Calm     80 % 0.0 mm open2300-1.11 W/m2
01:11 23.1 °C 19.3 °C 1014.4 hPa Calm     79 % 0.0 mm open2300-1.11 W/m2
03:11 22.1 °C 15.7 °C 1014.1 hPa NNE 4.2 km/h 4.2 km/h 67 % 0.0 mm open2300-1.11 W/m2
04:11 21.9 °C 14.5 °C 1014.1 hPa Calm   2.3 km/h 63 % 0.0 mm open2300-1.11 W/m2
05:11 21.4 °C 14.1 °C 1013.8 hPa NNW 4.7 km/h 4.7 km/h 63 % 0.0 mm open2300-1.11 W/m2
06:11 21.4 °C 14.1 °C 1013.8 hPa Calm   5.1 km/h 63 % 0.0 mm open2300-1.11 W/m2
07:11 20.9 °C 13.1 °C 1013.4 hPa North 5.6 km/h 8.9 km/h 61 % 0.0 mm open2300-1.11 W/m2
08:11 22.6 °C 13.9 °C 1013.8 hPa East 2.9 km/h 3.4 km/h 58 % 0.0 mm open2300-1.11 W/m2
09:11 24.6 °C 14.1 °C 1014.1 hPa Calm     52 % 0.0 mm open2300-1.11 W/m2
10:11 24.9 °C 16.3 °C 1014.4 hPa SSW 6.4 km/h 6.4 km/h 59 % 0.0 mm open2300-1.11 W/m2
11:11 26.6 °C 19.5 °C 1014.4 hPa WSW 6.4 km/h 8 km/h 65 % 0.0 mm open2300-1.11 W/m2
12:11 27.4 °C 20.7 °C 1014.8 hPa SSW 4.2 km/h 8.9 km/h 67 % 0.0 mm open2300-1.11 W/m2
13:11 27.9 °C 21.4 °C 1014.1 hPa SSE 9.3 km/h 9.3 km/h 68 % 0.0 mm open2300-1.11 W/m2
14:11 29.2 °C 22.2 °C 1014.1 hPa WNW 2.9 km/h 3.4 km/h 66 % 0.0 mm open2300-1.11 W/m2
15:11 28.9 °C 21.9 °C 1013.8 hPa ESE 3.4 km/h 6.9 km/h 66 % 0.0 mm open2300-1.11 W/m2
16:11 28.9 °C 21.9 °C 1013.4 hPa WSW 4.2 km/h 15 km/h 66 % 0.0 mm open2300-1.11 W/m2
17:11 29.2 °C 20.9 °C 1013.4 hPa SE 5.6 km/h 5.6 km/h 61 % 0.0 mm open2300-1.11 W/m2
18:11 28.3 °C 20.8 °C 1013.1 hPa South 2.3 km/h 8 km/h 64 % 0.0 mm open2300-1.11 W/m2
19:11 27.3 °C 20.6 °C 1012.8 hPa Calm   4.2 km/h 67 % 0.0 mm open2300-1.11 W/m2
20:11 26.3 °C 19.4 °C 1012.8 hPa Calm     66 % 0.0 mm open2300-1.11 W/m2
21:11 25.3 °C 18.5 °C 1012.8 hPa Calm   2.3 km/h 66 % 0.0 mm open2300-1.11 W/m2
22:11 24.6 °C 17.6 °C 1012.8 hPa NNE 1.8 km/h 1.8 km/h 65 % 0.0 mm open2300-1.11 W/m2
23:11 24.4 °C 15.9 °C 1013.4 hPa Calm     59 % 0.0 mm open2300-1.11 W/m2
Observations météo à CASSIS
WU-History script by Weather Underground - 1 mb